sensor_id;sensor_type;location;lat;lon;timestamp;P1;durP1;ratioP1;P2;durP2;ratioP2
17696;SDS011;8967;47.984;7.842;2023-01-15T00:01:27;2.78;;;0.70;;
17696;SDS011;8967;47.984;7.842;2023-01-15T00:03:56;0.38;;;0.30;;
17696;SDS011;8967;47.984;7.842;2023-01-15T00:06:26;0.20;;;0.20;;
17696;SDS011;8967;47.984;7.842;2023-01-15T00:08:53;0.13;;;0.13;;
17696;SDS011;8967;47.984;7.842;2023-01-15T00:11:20;0.30;;;0.20;;
17696;SDS011;8967;47.984;7.842;2023-01-15T00:13:48;0.20;;;0.20;;
17696;SDS011;8967;47.984;7.842;2023-01-15T00:16:17;0.40;;;0.38;;
17696;SDS011;8967;47.984;7.842;2023-01-15T00:18:48;0.20;;;0.20;;
17696;SDS011;8967;47.984;7.842;2023-01-15T00:21:15;0.63;;;0.50;;
17696;SDS011;8967;47.984;7.842;2023-01-15T00:23:44;0.28;;;0.28;;
17696;SDS011;8967;47.984;7.842;2023-01-15T00:26:28;0.20;;;0.20;;
17696;SDS011;8967;47.984;7.842;2023-01-15T00:29:13;0.20;;;0.20;;
17696;SDS011;8967;47.984;7.842;2023-01-15T00:31:44;0.30;;;0.30;;
17696;SDS011;8967;47.984;7.842;2023-01-15T00:34:20;0.45;;;0.20;;
17696;SDS011;8967;47.984;7.842;2023-01-15T00:36:46;0.30;;;0.30;;
17696;SDS011;8967;47.984;7.842;2023-01-15T00:39:15;0.47;;;0.30;;
17696;SDS011;8967;47.984;7.842;2023-01-15T00:41:42;0.63;;;0.30;;
17696;SDS011;8967;47.984;7.842;2023-01-15T00:44:09;1.75;;;0.40;;
17696;SDS011;8967;47.984;7.842;2023-01-15T00:46:36;0.20;;;0.20;;
17696;SDS011;8967;47.984;7.842;2023-01-15T00:49:02;1.65;;;0.10;;
17696;SDS011;8967;47.984;7.842;2023-01-15T00:51:33;0.10;;;0.10;;
17696;SDS011;8967;47.984;7.842;2023-01-15T00:54:00;0.22;;;0.15;;
17696;SDS011;8967;47.984;7.842;2023-01-15T00:56:29;0.30;;;0.28;;
17696;SDS011;8967;47.984;7.842;2023-01-15T00:58:56;0.20;;;0.20;;
17696;SDS011;8967;47.984;7.842;2023-01-15T01:01:24;0.47;;;0.20;;
17696;SDS011;8967;47.984;7.842;2023-01-15T01:03:51;0.20;;;0.20;;
17696;SDS011;8967;47.984;7.842;2023-01-15T01:06:21;0.22;;;0.20;;
17696;SDS011;8967;47.984;7.842;2023-01-15T01:08:48;0.30;;;0.30;;
17696;SDS011;8967;47.984;7.842;2023-01-15T01:11:16;0.32;;;0.20;;
17696;SDS011;8967;47.984;7.842;2023-01-15T01:13:49;0.20;;;0.20;;
17696;SDS011;8967;47.984;7.842;2023-01-15T01:16:20;0.40;;;0.40;;
17696;SDS011;8967;47.984;7.842;2023-01-15T01:18:48;0.20;;;0.20;;
17696;SDS011;8967;47.984;7.842;2023-01-15T01:21:16;0.40;;;0.20;;
17696;SDS011;8967;47.984;7.842;2023-01-15T01:23:43;0.20;;;0.20;;
17696;SDS011;8967;47.984;7.842;2023-01-15T01:26:10;0.30;;;0.25;;
17696;SDS011;8967;47.984;7.842;2023-01-15T01:28:41;0.28;;;0.20;;
17696;SDS011;8967;47.984;7.842;2023-01-15T01:31:10;0.40;;;0.30;;
17696;SDS011;8967;47.984;7.842;2023-01-15T01:33:37;0.08;;;0.08;;
17696;SDS011;8967;47.984;7.842;2023-01-15T01:36:06;0.17;;;0.15;;
17696;SDS011;8967;47.984;7.842;2023-01-15T01:38:33;0.90;;;0.13;;
17696;SDS011;8967;47.984;7.842;2023-01-15T01:41:00;0.22;;;0.10;;
17696;SDS011;8967;47.984;7.842;2023-01-15T01:43:27;1.48;;;0.13;;
17696;SDS011;8967;47.984;7.842;2023-01-15T01:45:57;1.95;;;0.20;;
17696;SDS011;8967;47.984;7.842;2023-01-15T01:48:27;0.10;;;0.10;;
17696;SDS011;8967;47.984;7.842;2023-01-15T01:50:58;0.20;;;0.20;;
17696;SDS011;8967;47.984;7.842;2023-01-15T01:53:27;0.65;;;0.10;;
17696;SDS011;8967;47.984;7.842;2023-01-15T01:55:57;0.20;;;0.20;;
17696;SDS011;8967;47.984;7.842;2023-01-15T01:58:26;0.13;;;0.13;;
17696;SDS011;8967;47.984;7.842;2023-01-15T02:00:55;0.00;;;0.00;;
17696;SDS011;8967;47.984;7.842;2023-01-15T02:03:25;0.10;;;0.10;;
17696;SDS011;8967;47.984;7.842;2023-01-15T02:06:00;0.10;;;0.10;;
17696;SDS011;8967;47.984;7.842;2023-01-15T02:08:30;0.20;;;0.20;;
17696;SDS011;8967;47.984;7.842;2023-01-15T02:10:59;0.50;;;0.20;;
17696;SDS011;8967;47.984;7.842;2023-01-15T02:13:30;0.10;;;0.10;;
17696;SDS011;8967;47.984;7.842;2023-01-15T02:16:02;0.25;;;0.20;;
17696;SDS011;8967;47.984;7.842;2023-01-15T02:18:37;0.73;;;0.20;;
17696;SDS011;8967;47.984;7.842;2023-01-15T02:21:11;0.17;;;0.17;;
17696;SDS011;8967;47.984;7.842;2023-01-15T02:24:06;0.93;;;0.20;;
17696;SDS011;8967;47.984;7.842;2023-01-15T02:29:38;0.30;;;0.30;;
17696;SDS011;8967;47.984;7.842;2023-01-15T02:32:19;1.27;;;0.20;;
17696;SDS011;8967;47.984;7.842;2023-01-15T02:34:54;0.28;;;0.28;;
17696;SDS011;8967;47.984;7.842;2023-01-15T02:37:25;0.10;;;0.10;;
17696;SDS011;8967;47.984;7.842;2023-01-15T02:39:54;2.05;;;0.40;;
17696;SDS011;8967;47.984;7.842;2023-01-15T02:42:26;0.10;;;0.10;;
17696;SDS011;8967;47.984;7.842;2023-01-15T02:44:55;0.20;;;0.20;;
17696;SDS011;8967;47.984;7.842;2023-01-15T02:47:26;0.80;;;0.22;;
17696;SDS011;8967;47.984;7.842;2023-01-15T02:49:58;0.65;;;0.30;;
17696;SDS011;8967;47.984;7.842;2023-01-15T02:52:34;0.20;;;0.20;;
17696;SDS011;8967;47.984;7.842;2023-01-15T02:55:06;0.10;;;0.10;;
17696;SDS011;8967;47.984;7.842;2023-01-15T02:57:43;0.20;;;0.20;;
17696;SDS011;8967;47.984;7.842;2023-01-15T03:00:15;1.13;;;0.15;;
17696;SDS011;8967;47.984;7.842;2023-01-15T03:02:49;0.20;;;0.20;;
17696;SDS011;8967;47.984;7.842;2023-01-15T03:05:21;0.45;;;0.20;;
17696;SDS011;8967;47.984;7.842;2023-01-15T03:07:53;0.30;;;0.30;;
17696;SDS011;8967;47.984;7.842;2023-01-15T03:10:26;1.02;;;0.32;;
17696;SDS011;8967;47.984;7.842;2023-01-15T03:13:02;0.20;;;0.20;;
17696;SDS011;8967;47.984;7.842;2023-01-15T03:15:50;0.40;;;0.30;;
17696;SDS011;8967;47.984;7.842;2023-01-15T03:18:41;0.30;;;0.30;;
17696;SDS011;8967;47.984;7.842;2023-01-15T03:21:12;0.30;;;0.30;;
17696;SDS011;8967;47.984;7.842;2023-01-15T03:23:45;0.30;;;0.30;;
17696;SDS011;8967;47.984;7.842;2023-01-15T03:26:14;0.40;;;0.10;;
17696;SDS011;8967;47.984;7.842;2023-01-15T03:28:44;1.25;;;0.20;;
17696;SDS011;8967;47.984;7.842;2023-01-15T03:31:13;0.20;;;0.20;;
17696;SDS011;8967;47.984;7.842;2023-01-15T03:33:41;0.75;;;0.25;;
17696;SDS011;8967;47.984;7.842;2023-01-15T03:36:13;0.80;;;0.20;;
17696;SDS011;8967;47.984;7.842;2023-01-15T03:38:44;0.10;;;0.10;;
17696;SDS011;8967;47.984;7.842;2023-01-15T03:41:26;0.73;;;0.20;;
17696;SDS011;8967;47.984;7.842;2023-01-15T03:44:04;0.75;;;0.10;;
17696;SDS011;8967;47.984;7.842;2023-01-15T03:46:39;0.85;;;0.20;;
17696;SDS011;8967;47.984;7.842;2023-01-15T03:49:17;0.30;;;0.30;;
17696;SDS011;8967;47.984;7.842;2023-01-15T03:51:55;0.15;;;0.15;;
17696;SDS011;8967;47.984;7.842;2023-01-15T03:54:31;0.30;;;0.30;;
17696;SDS011;8967;47.984;7.842;2023-01-15T03:57:04;0.68;;;0.25;;
17696;SDS011;8967;47.984;7.842;2023-01-15T03:59:38;0.52;;;0.32;;
17696;SDS011;8967;47.984;7.842;2023-01-15T04:02:11;0.20;;;0.20;;
17696;SDS011;8967;47.984;7.842;2023-01-15T04:04:40;0.50;;;0.30;;
17696;SDS011;8967;47.984;7.842;2023-01-15T04:07:09;0.20;;;0.20;;
17696;SDS011;8967;47.984;7.842;2023-01-15T04:09:38;0.20;;;0.20;;
17696;SDS011;8967;47.984;7.842;2023-01-15T04:12:09;0.20;;;0.20;;
17696;SDS011;8967;47.984;7.842;2023-01-15T04:14:41;1.75;;;0.30;;
17696;SDS011;8967;47.984;7.842;2023-01-15T04:17:14;0.30;;;0.20;;
17696;SDS011;8967;47.984;7.842;2023-01-15T04:19:41;0.20;;;0.20;;
17696;SDS011;8967;47.984;7.842;2023-01-15T04:22:09;0.20;;;0.20;;
17696;SDS011;8967;47.984;7.842;2023-01-15T04:24:36;0.10;;;0.10;;
17696;SDS011;8967;47.984;7.842;2023-01-15T04:27:03;0.10;;;0.10;;
17696;SDS011;8967;47.984;7.842;2023-01-15T04:29:30;1.17;;;0.20;;
17696;SDS011;8967;47.984;7.842;2023-01-15T04:31:58;0.30;;;0.30;;
17696;SDS011;8967;47.984;7.842;2023-01-15T04:34:27;0.10;;;0.10;;
17696;SDS011;8967;47.984;7.842;2023-01-15T04:36:55;0.20;;;0.20;;
17696;SDS011;8967;47.984;7.842;2023-01-15T04:39:25;0.20;;;0.20;;
17696;SDS011;8967;47.984;7.842;2023-01-15T04:41:51;0.25;;;0.25;;
17696;SDS011;8967;47.984;7.842;2023-01-15T04:44:36;0.35;;;0.20;;
17696;SDS011;8967;47.984;7.842;2023-01-15T04:47:04;0.20;;;0.20;;
17696;SDS011;8967;47.984;7.842;2023-01-15T04:49:32;0.10;;;0.10;;
17696;SDS011;8967;47.984;7.842;2023-01-15T04:52:00;1.65;;;0.20;;
17696;SDS011;8967;47.984;7.842;2023-01-15T04:54:26;0.93;;;0.20;;
17696;SDS011;8967;47.984;7.842;2023-01-15T04:56:54;0.13;;;0.13;;
17696;SDS011;8967;47.984;7.842;2023-01-15T04:59:21;0.98;;;0.40;;
17696;SDS011;8967;47.984;7.842;2023-01-15T05:01:49;0.20;;;0.20;;
17696;SDS011;8967;47.984;7.842;2023-01-15T05:04:18;0.75;;;0.35;;
17696;SDS011;8967;47.984;7.842;2023-01-15T05:06:48;0.63;;;0.40;;
17696;SDS011;8967;47.984;7.842;2023-01-15T05:09:17;1.38;;;0.40;;
17696;SDS011;8967;47.984;7.842;2023-01-15T05:11:44;0.40;;;0.40;;
17696;SDS011;8967;47.984;7.842;2023-01-15T05:14:11;0.35;;;0.30;;
17696;SDS011;8967;47.984;7.842;2023-01-15T05:16:38;0.43;;;0.30;;
17696;SDS011;8967;47.984;7.842;2023-01-15T05:19:05;0.30;;;0.22;;
17696;SDS011;8967;47.984;7.842;2023-01-15T05:21:35;0.40;;;0.40;;
17696;SDS011;8967;47.984;7.842;2023-01-15T05:24:05;0.47;;;0.30;;
17696;SDS011;8967;47.984;7.842;2023-01-15T05:26:35;0.63;;;0.40;;
17696;SDS011;8967;47.984;7.842;2023-01-15T05:29:02;0.47;;;0.40;;
17696;SDS011;8967;47.984;7.842;2023-01-15T05:31:29;0.82;;;0.50;;
17696;SDS011;8967;47.984;7.842;2023-01-15T05:33:58;0.47;;;0.30;;
17696;SDS011;8967;47.984;7.842;2023-01-15T05:36:25;3.85;;;0.50;;
17696;SDS011;8967;47.984;7.842;2023-01-15T05:38:55;0.38;;;0.30;;
17696;SDS011;8967;47.984;7.842;2023-01-15T05:41:23;0.30;;;0.28;;
17696;SDS011;8967;47.984;7.842;2023-01-15T05:44:08;3.15;;;0.45;;
17696;SDS011;8967;47.984;7.842;2023-01-15T05:46:38;1.10;;;0.47;;
17696;SDS011;8967;47.984;7.842;2023-01-15T05:49:06;1.83;;;0.40;;
17696;SDS011;8967;47.984;7.842;2023-01-15T05:51:34;0.65;;;0.30;;
17696;SDS011;8967;47.984;7.842;2023-01-15T05:54:05;1.20;;;0.40;;
17696;SDS011;8967;47.984;7.842;2023-01-15T05:56:36;0.85;;;0.50;;
17696;SDS011;8967;47.984;7.842;2023-01-15T05:59:03;3.17;;;0.50;;
17696;SDS011;8967;47.984;7.842;2023-01-15T06:01:31;0.90;;;0.52;;
17696;SDS011;8967;47.984;7.842;2023-01-15T06:03:58;1.20;;;0.30;;
17696;SDS011;8967;47.984;7.842;2023-01-15T06:06:25;0.70;;;0.30;;
17696;SDS011;8967;47.984;7.842;2023-01-15T06:08:53;0.80;;;0.30;;
17696;SDS011;8967;47.984;7.842;2023-01-15T06:11:21;0.93;;;0.50;;
17696;SDS011;8967;47.984;7.842;2023-01-15T06:13:50;0.40;;;0.40;;
17696;SDS011;8967;47.984;7.842;2023-01-15T06:16:17;2.00;;;0.30;;
17696;SDS011;8967;47.984;7.842;2023-01-15T06:18:44;0.52;;;0.40;;
17696;SDS011;8967;47.984;7.842;2023-01-15T06:21:11;0.35;;;0.35;;
17696;SDS011;8967;47.984;7.842;2023-01-15T06:23:39;1.08;;;0.32;;
17696;SDS011;8967;47.984;7.842;2023-01-15T06:26:07;1.35;;;0.45;;
17696;SDS011;8967;47.984;7.842;2023-01-15T06:28:40;0.20;;;0.20;;
17696;SDS011;8967;47.984;7.842;2023-01-15T06:31:11;0.63;;;0.40;;
17696;SDS011;8967;47.984;7.842;2023-01-15T06:33:39;0.25;;;0.25;;
17696;SDS011;8967;47.984;7.842;2023-01-15T06:36:07;0.30;;;0.30;;
17696;SDS011;8967;47.984;7.842;2023-01-15T06:38:36;0.55;;;0.55;;
17696;SDS011;8967;47.984;7.842;2023-01-15T06:41:04;0.82;;;0.30;;
17696;SDS011;8967;47.984;7.842;2023-01-15T06:43:54;1.13;;;0.68;;
17696;SDS011;8967;47.984;7.842;2023-01-15T06:46:39;0.73;;;0.50;;
17696;SDS011;8967;47.984;7.842;2023-01-15T06:49:27;0.30;;;0.30;;
17696;SDS011;8967;47.984;7.842;2023-01-15T06:51:54;0.35;;;0.13;;
17696;SDS011;8967;47.984;7.842;2023-01-15T06:54:21;0.35;;;0.35;;
17696;SDS011;8967;47.984;7.842;2023-01-15T06:56:48;0.25;;;0.25;;
17696;SDS011;8967;47.984;7.842;2023-01-15T06:59:16;0.40;;;0.40;;
17696;SDS011;8967;47.984;7.842;2023-01-15T07:01:46;0.30;;;0.30;;
17696;SDS011;8967;47.984;7.842;2023-01-15T07:04:13;1.95;;;0.20;;
17696;SDS011;8967;47.984;7.842;2023-01-15T07:06:41;0.60;;;0.30;;
17696;SDS011;8967;47.984;7.842;2023-01-15T07:09:08;0.45;;;0.45;;
17696;SDS011;8967;47.984;7.842;2023-01-15T07:11:35;0.70;;;0.30;;
17696;SDS011;8967;47.984;7.842;2023-01-15T07:14:13;0.20;;;0.20;;
17696;SDS011;8967;47.984;7.842;2023-01-15T07:16:42;0.30;;;0.30;;
17696;SDS011;8967;47.984;7.842;2023-01-15T07:19:09;1.13;;;0.20;;
17696;SDS011;8967;47.984;7.842;2023-01-15T07:21:36;0.50;;;0.50;;
17696;SDS011;8967;47.984;7.842;2023-01-15T07:24:03;0.85;;;0.50;;
17696;SDS011;8967;47.984;7.842;2023-01-15T07:26:30;0.38;;;0.20;;
17696;SDS011;8967;47.984;7.842;2023-01-15T07:28:57;1.45;;;0.20;;
17696;SDS011;8967;47.984;7.842;2023-01-15T07:31:24;0.43;;;0.20;;
17696;SDS011;8967;47.984;7.842;2023-01-15T07:33:52;1.50;;;0.30;;
17696;SDS011;8967;47.984;7.842;2023-01-15T07:36:21;0.20;;;0.20;;
17696;SDS011;8967;47.984;7.842;2023-01-15T07:38:47;0.35;;;0.35;;
17696;SDS011;8967;47.984;7.842;2023-01-15T07:41:17;1.33;;;0.70;;
17696;SDS011;8967;47.984;7.842;2023-01-15T07:44:01;0.38;;;0.30;;
17696;SDS011;8967;47.984;7.842;2023-01-15T07:46:45;0.65;;;0.35;;
17696;SDS011;8967;47.984;7.842;2023-01-15T07:49:31;0.30;;;0.30;;
17696;SDS011;8967;47.984;7.842;2023-01-15T07:52:13;2.42;;;0.50;;
17696;SDS011;8967;47.984;7.842;2023-01-15T07:54:42;0.32;;;0.32;;
17696;SDS011;8967;47.984;7.842;2023-01-15T07:57:09;0.90;;;0.40;;
17696;SDS011;8967;47.984;7.842;2023-01-15T07:59:37;0.63;;;0.50;;
17696;SDS011;8967;47.984;7.842;2023-01-15T08:02:06;1.23;;;0.50;;
17696;SDS011;8967;47.984;7.842;2023-01-15T08:04:34;0.68;;;0.30;;
17696;SDS011;8967;47.984;7.842;2023-01-15T08:07:01;0.65;;;0.30;;
17696;SDS011;8967;47.984;7.842;2023-01-15T08:09:32;0.55;;;0.40;;
17696;SDS011;8967;47.984;7.842;2023-01-15T08:11:59;0.32;;;0.20;;
17696;SDS011;8967;47.984;7.842;2023-01-15T08:14:44;0.28;;;0.28;;
17696;SDS011;8967;47.984;7.842;2023-01-15T08:17:29;0.47;;;0.22;;
17696;SDS011;8967;47.984;7.842;2023-01-15T08:19:57;0.52;;;0.20;;
17696;SDS011;8967;47.984;7.842;2023-01-15T08:22:24;1.35;;;0.22;;
17696;SDS011;8967;47.984;7.842;2023-01-15T08:24:53;1.45;;;0.70;;
17696;SDS011;8967;47.984;7.842;2023-01-15T08:27:20;0.60;;;0.40;;
17696;SDS011;8967;47.984;7.842;2023-01-15T08:29:47;0.30;;;0.30;;
17696;SDS011;8967;47.984;7.842;2023-01-15T08:32:16;1.85;;;0.60;;
17696;SDS011;8967;47.984;7.842;2023-01-15T08:34:43;0.63;;;0.60;;
17696;SDS011;8967;47.984;7.842;2023-01-15T08:37:11;0.50;;;0.40;;
17696;SDS011;8967;47.984;7.842;2023-01-15T08:39:38;0.70;;;0.60;;
17696;SDS011;8967;47.984;7.842;2023-01-15T08:42:05;1.35;;;0.52;;
17696;SDS011;8967;47.984;7.842;2023-01-15T08:44:32;0.80;;;0.60;;
17696;SDS011;8967;47.984;7.842;2023-01-15T08:46:59;1.00;;;0.50;;
17696;SDS011;8967;47.984;7.842;2023-01-15T08:49:26;0.40;;;0.32;;
17696;SDS011;8967;47.984;7.842;2023-01-15T08:51:53;0.40;;;0.40;;
17696;SDS011;8967;47.984;7.842;2023-01-15T08:54:21;0.57;;;0.50;;
17696;SDS011;8967;47.984;7.842;2023-01-15T08:56:52;0.30;;;0.30;;
17696;SDS011;8967;47.984;7.842;2023-01-15T08:59:19;0.38;;;0.30;;
17696;SDS011;8967;47.984;7.842;2023-01-15T09:01:48;1.08;;;0.28;;
17696;SDS011;8967;47.984;7.842;2023-01-15T09:04:15;0.65;;;0.30;;
17696;SDS011;8967;47.984;7.842;2023-01-15T09:06:44;0.93;;;0.40;;
17696;SDS011;8967;47.984;7.842;2023-01-15T09:09:11;0.22;;;0.22;;
17696;SDS011;8967;47.984;7.842;2023-01-15T09:11:40;0.38;;;0.38;;
17696;SDS011;8967;47.984;7.842;2023-01-15T09:14:11;0.40;;;0.40;;
17696;SDS011;8967;47.984;7.842;2023-01-15T09:16:39;0.65;;;0.50;;
17696;SDS011;8967;47.984;7.842;2023-01-15T09:19:06;0.70;;;0.43;;
17696;SDS011;8967;47.984;7.842;2023-01-15T09:21:35;0.40;;;0.40;;
17696;SDS011;8967;47.984;7.842;2023-01-15T09:24:02;0.70;;;0.70;;
17696;SDS011;8967;47.984;7.842;2023-01-15T09:26:30;1.45;;;0.95;;
17696;SDS011;8967;47.984;7.842;2023-01-15T09:29:02;2.83;;;0.80;;
17696;SDS011;8967;47.984;7.842;2023-01-15T09:31:32;0.70;;;0.70;;
17696;SDS011;8967;47.984;7.842;2023-01-15T09:33:59;0.73;;;0.70;;
17696;SDS011;8967;47.984;7.842;2023-01-15T09:36:27;0.77;;;0.45;;
17696;SDS011;8967;47.984;7.842;2023-01-15T09:38:55;0.60;;;0.47;;
17696;SDS011;8967;47.984;7.842;2023-01-15T09:41:22;0.40;;;0.38;;
17696;SDS011;8967;47.984;7.842;2023-01-15T09:44:16;0.55;;;0.30;;
17696;SDS011;8967;47.984;7.842;2023-01-15T09:46:58;0.60;;;0.30;;
17696;SDS011;8967;47.984;7.842;2023-01-15T09:49:34;0.32;;;0.20;;
17696;SDS011;8967;47.984;7.842;2023-01-15T09:52:12;0.20;;;0.20;;
17696;SDS011;8967;47.984;7.842;2023-01-15T09:54:49;0.30;;;0.30;;
17696;SDS011;8967;47.984;7.842;2023-01-15T09:57:22;0.43;;;0.30;;
17696;SDS011;8967;47.984;7.842;2023-01-15T09:59:52;0.10;;;0.10;;
17696;SDS011;8967;47.984;7.842;2023-01-15T10:02:26;0.80;;;0.30;;
17696;SDS011;8967;47.984;7.842;2023-01-15T10:04:58;0.30;;;0.30;;
17696;SDS011;8967;47.984;7.842;2023-01-15T10:07:32;0.95;;;0.40;;
17696;SDS011;8967;47.984;7.842;2023-01-15T10:10:09;0.20;;;0.20;;
17696;SDS011;8967;47.984;7.842;2023-01-15T10:12:41;2.35;;;0.40;;
17696;SDS011;8967;47.984;7.842;2023-01-15T10:15:22;0.55;;;0.47;;
17696;SDS011;8967;47.984;7.842;2023-01-15T10:17:53;1.67;;;0.55;;
17696;SDS011;8967;47.984;7.842;2023-01-15T10:20:27;0.30;;;0.30;;
17696;SDS011;8967;47.984;7.842;2023-01-15T10:23:26;0.50;;;0.30;;
17696;SDS011;8967;47.984;7.842;2023-01-15T10:26:01;0.35;;;0.35;;
17696;SDS011;8967;47.984;7.842;2023-01-15T10:28:38;0.30;;;0.30;;
17696;SDS011;8967;47.984;7.842;2023-01-15T10:31:19;0.30;;;0.30;;
17696;SDS011;8967;47.984;7.842;2023-01-15T10:33:52;0.20;;;0.20;;
17696;SDS011;8967;47.984;7.842;2023-01-15T10:36:31;0.93;;;0.40;;
17696;SDS011;8967;47.984;7.842;2023-01-15T10:39:07;0.90;;;0.45;;
17696;SDS011;8967;47.984;7.842;2023-01-15T10:41:46;0.30;;;0.28;;
17696;SDS011;8967;47.984;7.842;2023-01-15T10:44:23;0.20;;;0.20;;
17696;SDS011;8967;47.984;7.842;2023-01-15T10:47:01;0.50;;;0.47;;
17696;SDS011;8967;47.984;7.842;2023-01-15T10:49:29;0.30;;;0.30;;
17696;SDS011;8967;47.984;7.842;2023-01-15T10:52:02;0.50;;;0.50;;
17696;SDS011;8967;47.984;7.842;2023-01-15T10:54:36;0.30;;;0.30;;
17696;SDS011;8967;47.984;7.842;2023-01-15T10:57:07;0.43;;;0.40;;
17696;SDS011;8967;47.984;7.842;2023-01-15T10:59:39;0.30;;;0.30;;
17696;SDS011;8967;47.984;7.842;2023-01-15T11:02:18;0.50;;;0.50;;
17696;SDS011;8967;47.984;7.842;2023-01-15T11:04:50;1.85;;;1.20;;
17696;SDS011;8967;47.984;7.842;2023-01-15T11:07:17;0.30;;;0.30;;
17696;SDS011;8967;47.984;7.842;2023-01-15T11:09:46;0.70;;;0.50;;
17696;SDS011;8967;47.984;7.842;2023-01-15T11:12:18;0.47;;;0.43;;
17696;SDS011;8967;47.984;7.842;2023-01-15T11:15:15;1.10;;;0.55;;
17696;SDS011;8967;47.984;7.842;2023-01-15T11:18:07;0.45;;;0.38;;
17696;SDS011;8967;47.984;7.842;2023-01-15T11:20:57;0.40;;;0.40;;
17696;SDS011;8967;47.984;7.842;2023-01-15T11:23:26;0.22;;;0.22;;
17696;SDS011;8967;47.984;7.842;2023-01-15T11:25:53;0.20;;;0.20;;
17696;SDS011;8967;47.984;7.842;2023-01-15T11:28:32;0.50;;;0.38;;
17696;SDS011;8967;47.984;7.842;2023-01-15T11:31:04;0.40;;;0.40;;
17696;SDS011;8967;47.984;7.842;2023-01-15T11:33:33;0.40;;;0.40;;
17696;SDS011;8967;47.984;7.842;2023-01-15T11:36:01;1.00;;;0.60;;
17696;SDS011;8967;47.984;7.842;2023-01-15T11:38:30;0.57;;;0.45;;
17696;SDS011;8967;47.984;7.842;2023-01-15T11:41:15;1.17;;;0.43;;
17696;SDS011;8967;47.984;7.842;2023-01-15T11:43:55;0.73;;;0.40;;
17696;SDS011;8967;47.984;7.842;2023-01-15T11:46:40;1.67;;;0.40;;
17696;SDS011;8967;47.984;7.842;2023-01-15T11:49:26;1.80;;;0.47;;
17696;SDS011;8967;47.984;7.842;2023-01-15T11:52:12;0.57;;;0.40;;
17696;SDS011;8967;47.984;7.842;2023-01-15T11:54:42;0.98;;;0.40;;
17696;SDS011;8967;47.984;7.842;2023-01-15T11:57:12;1.48;;;0.50;;
17696;SDS011;8967;47.984;7.842;2023-01-15T11:59:50;0.60;;;0.50;;
17696;SDS011;8967;47.984;7.842;2023-01-15T12:02:20;0.98;;;0.30;;
17696;SDS011;8967;47.984;7.842;2023-01-15T12:04:59;1.38;;;0.70;;
17696;SDS011;8967;47.984;7.842;2023-01-15T12:07:28;0.40;;;0.38;;
17696;SDS011;8967;47.984;7.842;2023-01-15T12:10:00;0.68;;;0.30;;
17696;SDS011;8967;47.984;7.842;2023-01-15T12:12:41;1.05;;;0.63;;
17696;SDS011;8967;47.984;7.842;2023-01-15T12:15:22;1.52;;;0.35;;
17696;SDS011;8967;47.984;7.842;2023-01-15T12:21:03;0.82;;;0.40;;
17696;SDS011;8967;47.984;7.842;2023-01-15T12:23:56;0.30;;;0.30;;
17696;SDS011;8967;47.984;7.842;2023-01-15T12:26:46;2.92;;;1.15;;
17696;SDS011;8967;47.984;7.842;2023-01-15T12:29:27;0.80;;;0.70;;
17696;SDS011;8967;47.984;7.842;2023-01-15T12:31:57;2.10;;;0.60;;
17696;SDS011;8967;47.984;7.842;2023-01-15T12:34:30;0.50;;;0.50;;
17696;SDS011;8967;47.984;7.842;2023-01-15T12:37:08;1.05;;;0.45;;
17696;SDS011;8967;47.984;7.842;2023-01-15T12:39:41;2.42;;;1.20;;
17696;SDS011;8967;47.984;7.842;2023-01-15T12:42:14;0.60;;;0.40;;
17696;SDS011;8967;47.984;7.842;2023-01-15T12:45:04;0.57;;;0.45;;
17696;SDS011;8967;47.984;7.842;2023-01-15T12:47:36;1.15;;;0.47;;
17696;SDS011;8967;47.984;7.842;2023-01-15T12:50:17;0.70;;;0.60;;
17696;SDS011;8967;47.984;7.842;2023-01-15T12:52:56;2.30;;;0.50;;
17696;SDS011;8967;47.984;7.842;2023-01-15T12:55:27;2.35;;;0.45;;
17696;SDS011;8967;47.984;7.842;2023-01-15T12:57:58;1.23;;;0.60;;
17696;SDS011;8967;47.984;7.842;2023-01-15T13:00:28;0.63;;;0.57;;
17696;SDS011;8967;47.984;7.842;2023-01-15T13:03:04;0.82;;;0.60;;
17696;SDS011;8967;47.984;7.842;2023-01-15T13:05:45;1.02;;;0.57;;
17696;SDS011;8967;47.984;7.842;2023-01-15T13:08:17;1.48;;;0.57;;
17696;SDS011;8967;47.984;7.842;2023-01-15T13:10:48;0.68;;;0.40;;
17696;SDS011;8967;47.984;7.842;2023-01-15T13:13:16;2.00;;;0.60;;
17696;SDS011;8967;47.984;7.842;2023-01-15T13:15:54;0.95;;;0.70;;
17696;SDS011;8967;47.984;7.842;2023-01-15T13:18:30;1.33;;;0.52;;
17696;SDS011;8967;47.984;7.842;2023-01-15T13:21:05;2.50;;;0.50;;
17696;SDS011;8967;47.984;7.842;2023-01-15T13:23:47;0.75;;;0.43;;
17696;SDS011;8967;47.984;7.842;2023-01-15T13:29:39;1.92;;;0.50;;
17696;SDS011;8967;47.984;7.842;2023-01-15T13:32:21;2.42;;;0.73;;
17696;SDS011;8967;47.984;7.842;2023-01-15T13:34:52;2.40;;;0.80;;
17696;SDS011;8967;47.984;7.842;2023-01-15T13:37:23;2.42;;;0.70;;
17696;SDS011;8967;47.984;7.842;2023-01-15T13:39:55;1.48;;;0.70;;
17696;SDS011;8967;47.984;7.842;2023-01-15T13:42:25;2.17;;;0.65;;
17696;SDS011;8967;47.984;7.842;2023-01-15T13:45:02;3.22;;;0.73;;
17696;SDS011;8967;47.984;7.842;2023-01-15T13:47:48;5.90;;;0.93;;
17696;SDS011;8967;47.984;7.842;2023-01-15T13:50:22;2.70;;;0.50;;
17696;SDS011;8967;47.984;7.842;2023-01-15T13:52:58;1.48;;;0.45;;
17696;SDS011;8967;47.984;7.842;2023-01-15T13:55:33;1.25;;;0.55;;
17696;SDS011;8967;47.984;7.842;2023-01-15T13:58:15;2.08;;;0.85;;
17696;SDS011;8967;47.984;7.842;2023-01-15T14:00:59;1.98;;;0.77;;
17696;SDS011;8967;47.984;7.842;2023-01-15T14:03:31;1.70;;;0.60;;
17696;SDS011;8967;47.984;7.842;2023-01-15T14:06:00;1.95;;;0.80;;
17696;SDS011;8967;47.984;7.842;2023-01-15T14:08:35;2.28;;;0.43;;
17696;SDS011;8967;47.984;7.842;2023-01-15T14:11:26;1.85;;;0.75;;
17696;SDS011;8967;47.984;7.842;2023-01-15T14:17:05;2.20;;;0.50;;
17696;SDS011;8967;47.984;7.842;2023-01-15T14:23:02;3.33;;;0.70;;
17696;SDS011;8967;47.984;7.842;2023-01-15T14:25:43;2.05;;;0.63;;
17696;SDS011;8967;47.984;7.842;2023-01-15T14:28:36;0.82;;;0.50;;
17696;SDS011;8967;47.984;7.842;2023-01-15T14:31:15;3.47;;;0.70;;
17696;SDS011;8967;47.984;7.842;2023-01-15T14:34:09;1.88;;;0.70;;
17696;SDS011;8967;47.984;7.842;2023-01-15T14:36:45;2.85;;;0.40;;
17696;SDS011;8967;47.984;7.842;2023-01-15T14:39:26;2.88;;;0.50;;
17696;SDS011;8967;47.984;7.842;2023-01-15T14:41:57;2.75;;;0.60;;
17696;SDS011;8967;47.984;7.842;2023-01-15T14:44:57;2.83;;;0.70;;
17696;SDS011;8967;47.984;7.842;2023-01-15T14:47:28;0.60;;;0.50;;
17696;SDS011;8967;47.984;7.842;2023-01-15T14:50:00;3.15;;;0.60;;
17696;SDS011;8967;47.984;7.842;2023-01-15T14:52:29;2.03;;;0.70;;
17696;SDS011;8967;47.984;7.842;2023-01-15T14:54:57;3.03;;;0.65;;
17696;SDS011;8967;47.984;7.842;2023-01-15T14:57:27;4.43;;;0.77;;
17696;SDS011;8967;47.984;7.842;2023-01-15T14:59:57;0.63;;;0.57;;
17696;SDS011;8967;47.984;7.842;2023-01-15T15:02:31;2.35;;;0.45;;
17696;SDS011;8967;47.984;7.842;2023-01-15T15:05:02;1.65;;;0.70;;
17696;SDS011;8967;47.984;7.842;2023-01-15T15:07:34;1.67;;;0.68;;
17696;SDS011;8967;47.984;7.842;2023-01-15T15:10:06;3.35;;;0.75;;
17696;SDS011;8967;47.984;7.842;2023-01-15T15:12:43;2.05;;;0.90;;
17696;SDS011;8967;47.984;7.842;2023-01-15T15:15:19;3.88;;;0.82;;
17696;SDS011;8967;47.984;7.842;2023-01-15T15:17:56;1.95;;;0.70;;
17696;SDS011;8967;47.984;7.842;2023-01-15T15:20:32;2.97;;;1.15;;
17696;SDS011;8967;47.984;7.842;2023-01-15T15:23:11;2.60;;;0.70;;
17696;SDS011;8967;47.984;7.842;2023-01-15T15:25:44;0.87;;;0.60;;
17696;SDS011;8967;47.984;7.842;2023-01-15T15:28:19;3.60;;;1.10;;
17696;SDS011;8967;47.984;7.842;2023-01-15T15:30:48;2.70;;;0.80;;
17696;SDS011;8967;47.984;7.842;2023-01-15T15:33:16;1.77;;;0.90;;
17696;SDS011;8967;47.984;7.842;2023-01-15T15:35:48;2.83;;;1.10;;
17696;SDS011;8967;47.984;7.842;2023-01-15T15:38:20;1.10;;;0.80;;
17696;SDS011;8967;47.984;7.842;2023-01-15T15:40:49;1.83;;;1.10;;
17696;SDS011;8967;47.984;7.842;2023-01-15T15:43:19;1.55;;;0.73;;
17696;SDS011;8967;47.984;7.842;2023-01-15T15:46:17;3.05;;;1.33;;
17696;SDS011;8967;47.984;7.842;2023-01-15T15:49:04;1.27;;;1.00;;